Time;durP1;ratioP1;P1;durP2;ratioP2;P2;SDS_P1;SDS_P2;PMS_P1;PMS_P2;Temp;Humidity;BMP_temperature;BMP_pressure;BME280_temperature;BME280_humidity;BME280_pressure;Samples;Min_cycle;Max_cycle;Signal;HPM_P1;HPM_P2
2023/03/14 05:22:32;;;;;;;1.30;0.77;;;;;;;11.02;83.66;98223.09;5088821;28;20328;-70
2023/03/14 05:25:16;;;;;;;1.02;0.65;;;;;;;11.10;81.60;98225.44;5087833;28;20048;-70
2023/03/14 05:28:02;;;;;;;1.83;0.82;;;;;;;11.14;81.07;98218.63;5087780;28;20047;-70
2023/03/14 05:30:37;;;;;;;4.15;0.98;;;;;;;11.19;80.27;98214.47;5089131;28;20028;-71
2023/03/14 05:33:18;;;;;;;3.17;0.95;;;;;;;11.23;80.55;98210.31;5088889;28;20047;-70
2023/03/14 05:36:00;;;;;;;2.92;0.77;;;;;;;11.27;79.65;98206.97;5088901;28;20049;-70
2023/03/14 05:38:46;;;;;;;0.50;0.40;;;;;;;11.19;80.22;98182.50;5077285;28;20076;-69
2023/03/14 05:41:41;;;;;;;1.10;0.52;;;;;;;11.25;80.23;98198.38;5087492;28;20040;-70
2023/03/14 05:44:23;;;;;;;1.65;0.55;;;;;;;11.29;79.45;98177.44;5087191;28;20500;-70
2023/03/14 05:47:09;;;;;;;1.05;0.60;;;;;;;11.28;80.01;98186.44;5088291;28;20113;-68
2023/03/14 05:49:53;;;;;;;0.40;0.40;;;;;;;11.26;78.94;98153.88;5088995;28;20542;-71
2023/03/14 05:52:32;;;;;;;1.55;0.68;;;;;;;11.22;79.39;98150.06;5086985;28;20530;-72
2023/03/14 05:55:08;;;;;;;1.55;0.75;;;;;;;11.11;80.88;98160.47;5087208;28;20130;-71
2023/03/14 05:58:02;;;;;;;0.93;0.57;;;;;;;11.07;80.21;98151.28;5087268;28;20043;-70
2023/03/14 06:00:54;;;;;;;2.65;0.45;;;;;;;11.03;80.37;98147.47;5064365;28;20048;-73
2023/03/14 06:03:34;;;;;;;0.38;0.30;;;;;;;10.97;80.85;98148.38;5086825;28;20115;-71
2023/03/14 06:05:59;;;;;;;1.20;0.50;;;;;;;10.98;80.52;98144.66;5087029;28;20046;-71
2023/03/14 06:08:25;;;;;;;5.85;0.70;;;;;;;10.93;81.21;98130.41;5087211;28;20107;-72
2023/03/14 06:10:51;;;;;;;0.40;0.40;;;;;;;10.86;81.54;98139.28;5088458;28;20115;-71
2023/03/14 06:13:19;;;;;;;4.53;0.70;;;;;;;10.84;81.65;98145.88;5086633;28;20101;-70
2023/03/14 06:15:44;;;;;;;1.05;0.60;;;;;;;10.83;82.30;98141.59;5086746;28;20550;-69
2023/03/14 06:18:13;;;;;;;0.47;0.45;;;;;;;10.83;81.76;98130.94;5086837;28;20063;-71
2023/03/14 06:20:40;;;;;;;5.97;0.90;;;;;;;10.80;82.54;98145.50;5086686;28;20036;-70
2023/03/14 06:23:07;;;;;;;1.33;0.45;;;;;;;10.77;81.71;98134.50;5086352;28;20036;-70
2023/03/14 06:25:34;;;;;;;2.37;0.83;;;;;;;10.84;81.30;98138.72;5086593;28;20123;-71
2023/03/14 06:27:59;;;;;;;1.40;0.40;;;;;;;10.84;81.41;98128.06;5086592;28;20817;-69
2023/03/14 06:30:25;;;;;;;0.90;0.40;;;;;;;10.86;81.49;98119.84;5086564;28;20055;-71
2023/03/14 06:32:52;;;;;;;3.63;0.73;;;;;;;10.91;81.23;98138.63;5078573;28;20547;-69
2023/03/14 06:35:19;;;;;;;1.98;1.10;;;;;;;10.90;80.97;98129.00;5072981;28;20489;-70
2023/03/14 06:37:46;;;;;;;1.15;0.50;;;;;;;10.93;81.96;98141.84;5072986;28;20048;-69
2023/03/14 06:40:16;;;;;;;1.75;0.68;;;;;;;10.99;81.09;98145.47;5072870;28;20043;-69
2023/03/14 06:43:02;;;;;;;1.65;0.38;;;;;;;11.11;79.82;98149.81;5073440;28;20463;-68
2023/03/14 06:45:30;;;;;;;0.70;0.57;;;;;;;11.12;79.73;98150.63;5073105;28;20558;-69
2023/03/14 06:47:57;;;;;;;0.82;0.60;;;;;;;11.17;79.73;98133.94;5072823;28;20408;-70
2023/03/14 06:50:29;;;;;;;0.75;0.43;;;;;;;11.18;79.43;98130.25;5072713;28;20032;-70
2023/03/14 06:52:56;;;;;;;1.88;0.63;;;;;;;11.26;80.37;98143.22;5072370;28;20059;-71
2023/03/14 06:55:25;;;;;;;1.80;0.57;;;;;;;11.25;79.62;98144.28;5071900;28;20453;-71
2023/03/14 06:57:52;;;;;;;0.60;0.60;;;;;;;11.29;81.09;98148.13;5073214;28;20037;-64
2023/03/14 07:00:18;;;;;;;0.93;0.57;;;;;;;11.32;79.84;98156.44;5072850;28;20507;-66
2023/03/14 07:02:44;;;;;;;0.90;0.60;;;;;;;11.39;80.87;98164.34;5072656;28;20127;-53
2023/03/14 07:05:27;;;;;;;0.45;0.40;;;;;;;11.37;79.88;98164.59;5072770;28;20048;-56
2023/03/14 07:07:52;;;;;;;1.55;0.50;;;;;;;11.42;79.93;98161.25;5072832;28;20405;-56
2023/03/14 07:10:17;;;;;;;1.15;0.68;;;;;;;11.42;80.69;98166.56;5072823;28;20063;-63
2023/03/14 07:12:43;;;;;;;0.30;0.30;;;;;;;11.44;79.70;98177.81;5073741;28;20450;-63
2023/03/14 07:15:09;;;;;;;4.40;0.70;;;;;;;11.52;78.83;98182.00;5072712;28;20619;-63
2023/03/14 07:17:34;;;;;;;0.80;0.50;;;;;;;11.52;79.07;98185.47;5074286;28;20181;-59
2023/03/14 07:20:00;;;;;;;0.68;0.30;;;;;;;11.57;78.91;98196.25;5072631;28;20131;-62
2023/03/14 07:22:26;;;;;;;2.22;0.40;;;;;;;11.64;78.47;98196.97;5072111;28;20036;-63
2023/03/14 07:24:52;;;;;;;0.68;0.20;;;;;;;11.72;79.20;98200.34;5072560;28;20028;-62
2023/03/14 07:27:18;;;;;;;0.85;0.70;;;;;;;11.72;77.70;98203.81;5072481;28;20150;-63
2023/03/14 07:29:44;;;;;;;2.72;0.90;;;;;;;11.83;76.79;98207.59;5072559;28;20123;-63
2023/03/14 07:32:10;;;;;;;1.52;0.70;;;;;;;11.83;76.92;98215.59;5072188;28;20032;-68
2023/03/14 07:34:35;;;;;;;1.02;0.55;;;;;;;11.91;77.01;98212.56;5073364;28;20040;-63
2023/03/14 07:37:00;;;;;;;2.33;0.77;;;;;;;11.91;76.68;98209.91;5072378;28;20036;-63
2023/03/14 07:39:26;;;;;;;0.80;0.50;;;;;;;11.97;76.42;98210.84;5072227;28;20124;-64
2023/03/14 07:42:07;;;;;;;0.98;0.60;;;;;;;12.02;76.00;98208.31;5073278;28;20043;-61
2023/03/14 07:44:53;;;;;;;1.58;0.50;;;;;;;12.06;76.16;98202.28;5071241;28;20036;-62
2023/03/14 07:47:18;;;;;;;0.28;0.28;;;;;;;12.29;77.59;98209.44;5073154;28;20140;-62
2023/03/14 07:49:44;;;;;;;1.25;0.50;;;;;;;12.47;73.33;98201.31;5072487;28;20036;-64
2023/03/14 07:52:09;;;;;;;0.88;0.43;;;;;;;12.54;72.76;98216.38;5072541;28;20440;-65
2023/03/14 07:54:34;;;;;;;0.50;0.43;;;;;;;12.66;73.44;98201.97;5072408;28;20032;-61
2023/03/14 07:57:00;;;;;;;0.20;0.20;;;;;;;12.77;71.81;98210.97;5072565;28;20506;-63
2023/03/14 07:59:27;;;;;;;1.65;0.55;;;;;;;12.85;71.00;98210.63;5072521;28;20040;-64
2023/03/14 08:01:52;;;;;;;2.45;0.57;;;;;;;12.93;71.23;98209.44;5072374;28;20032;-63
2023/03/14 08:04:18;;;;;;;1.55;0.20;;;;;;;12.85;71.11;98215.16;5072063;28;20102;-65
2023/03/14 08:06:43;;;;;;;0.30;0.30;;;;;;;12.83;71.73;98223.41;5072212;28;20060;-63
2023/03/14 08:09:09;;;;;;;1.27;0.40;;;;;;;12.84;71.24;98218.88;5072229;28;20456;-64
2023/03/14 08:11:34;;;;;;;2.05;0.20;;;;;;;12.75;70.44;98224.59;5072125;28;20032;-64
2023/03/14 08:14:00;;;;;;;0.17;0.10;;;;;;;12.78;70.98;98239.34;5071884;28;20037;-64
2023/03/14 08:16:25;;;;;;;0.40;0.20;;;;;;;12.81;70.45;98227.38;5072094;28;20085;-63
2023/03/14 08:18:51;;;;;;;0.65;0.40;;;;;;;12.67;72.74;98226.81;5072061;28;20394;-62
2023/03/14 08:21:16;;;;;;;0.43;0.32;;;;;;;12.63;73.60;98228.31;5071738;28;20115;-62
2023/03/14 08:23:41;;;;;;;1.65;0.40;;;;;;;12.71;74.17;98244.81;5071723;28;20052;-64
2023/03/14 08:26:08;;;;;;;0.20;0.20;;;;;;;12.68;71.37;98228.44;5071694;28;20037;-63
2023/03/14 08:28:33;;;;;;;2.65;0.20;;;;;;;12.67;73.52;98240.19;5071916;28;20656;-62
2023/03/14 08:31:00;;;;;;;0.98;0.45;;;;;;;12.60;74.67;98240.31;5071776;28;20111;-63
2023/03/14 08:33:27;;;;;;;0.73;0.20;;;;;;;12.57;74.78;98234.59;5071349;28;20034;-64
2023/03/14 08:35:57;;;;;;;1.08;0.20;;;;;;;12.44;75.53;98241.81;5071680;28;20496;-65
2023/03/14 08:38:23;;;;;;;0.10;0.10;;;;;;;12.48;75.58;98229.63;5071737;28;20049;-65
2023/03/14 08:40:49;;;;;;;0.68;0.25;;;;;;;12.38;73.12;98228.59;5071695;28;20035;-64
2023/03/14 08:43:15;;;;;;;2.40;0.20;;;;;;;12.40;73.90;98223.84;5071363;28;20115;-63
2023/03/14 08:45:41;;;;;;;1.98;0.30;;;;;;;12.45;74.16;98230.09;5071877;28;20067;-57
2023/03/14 08:48:06;;;;;;;2.28;0.30;;;;;;;12.63;72.91;98231.00;5071568;28;20117;-62
2023/03/14 08:50:31;;;;;;;0.30;0.30;;;;;;;12.61;71.58;98227.75;5071623;28;20044;-62
2023/03/14 08:53:00;;;;;;;0.40;0.40;;;;;;;12.60;71.01;98220.78;5071302;28;20032;-61
2023/03/14 08:55:27;;;;;;;0.80;0.17;;;;;;;12.68;71.19;98231.09;5071242;28;20037;-62
2023/03/14 08:57:53;;;;;;;1.85;0.40;;;;;;;12.90;71.49;98224.06;5071554;28;20083;-61
2023/03/14 09:00:19;;;;;;;0.17;0.17;;;;;;;13.01;69.85;98222.41;5071273;28;20037;-60
2023/03/14 09:02:44;;;;;;;0.20;0.20;;;;;;;12.92;69.86;98235.34;5071112;28;20044;-61
2023/03/14 09:05:10;;;;;;;0.08;0.08;;;;;;;12.85;70.88;98245.38;5071335;28;20250;-60
2023/03/14 09:07:36;;;;;;;0.08;0.05;;;;;;;12.75;70.70;98243.28;5071399;28;20131;-61
2023/03/14 09:10:02;;;;;;;0.20;0.20;;;;;;;12.76;71.22;98244.91;5070126;28;20133;-62
2023/03/14 09:12:27;;;;;;;2.17;0.20;;;;;;;12.73;71.10;98253.41;5069785;28;20059;-62
2023/03/14 09:14:53;;;;;;;0.20;0.08;;;;;;;12.79;71.83;98253.50;5071309;28;20058;-62
2023/03/14 09:17:18;;;;;;;0.68;0.20;;;;;;;12.77;71.15;98245.72;5071183;28;20554;-62
2023/03/14 09:19:44;;;;;;;0.10;0.10;;;;;;;12.77;70.63;98237.69;5071480;28;20090;-62
2023/03/14 09:22:09;;;;;;;0.15;0.13;;;;;;;12.90;71.07;98244.63;5070942;28;20037;-62
2023/03/14 09:24:34;;;;;;;1.85;0.20;;;;;;;12.98;71.50;98245.09;5071031;28;20111;-61
2023/03/14 09:27:00;;;;;;;0.50;0.17;;;;;;;13.02;71.09;98243.56;5071168;28;20174;-61
2023/03/14 09:29:25;;;;;;;0.20;0.10;;;;;;;13.18;70.71;98246.53;5071178;28;20036;-62
2023/03/14 09:31:51;;;;;;;0.30;0.20;;;;;;;13.26;69.20;98240.84;5071105;28;20032;-61
2023/03/14 09:34:17;;;;;;;0.10;0.10;;;;;;;13.35;68.70;98241.25;5070790;28;20036;-61
2023/03/14 09:36:44;;;;;;;0.20;0.20;;;;;;;13.36;68.68;98251.72;5071038;28;20527;-62
2023/03/14 09:39:10;;;;;;;0.10;0.10;;;;;;;13.36;69.35;98250.91;5071131;28;20108;-60
2023/03/14 09:41:42;;;;;;;0.93;0.10;;;;;;;13.19;68.88;98251.66;5071009;28;20045;-61
2023/03/14 09:44:15;;;;;;;0.52;0.13;;;;;;;13.13;69.16;98263.28;5070738;28;20039;-62
2023/03/14 09:46:44;;;;;;;0.52;0.10;;;;;;;13.08;69.34;98265.84;5070922;28;20089;-62
2023/03/14 09:49:19;;;;;;;0.00;0.00;;;;;;;12.96;73.51;98273.09;5071058;28;20028;-62
2023/03/14 09:51:49;;;;;;;1.65;0.20;;;;;;;12.94;73.63;98301.91;5071008;28;20437;-63
2023/03/14 09:54:44;;;;;;;0.20;0.20;;;;;;;12.80;74.22;98279.19;5070963;28;20667;-63
2023/03/14 09:57:18;;;;;;;0.70;0.20;;;;;;;12.72;77.54;98288.38;5065099;28;20050;-62
2023/03/14 09:59:46;;;;;;;0.10;0.10;;;;;;;12.75;77.30;98290.56;5070958;28;20043;-62
2023/03/14 10:02:18;;;;;;;0.60;0.30;;;;;;;12.71;78.76;98289.38;5070682;28;20021;-63
2023/03/14 10:04:45;;;;;;;0.10;0.10;;;;;;;12.56;80.46;98302.41;5070924;28;20279;-62
2023/03/14 10:07:15;;;;;;;0.13;0.13;;;;;;;12.59;81.98;98299.31;5071078;28;20064;-63
2023/03/14 10:09:56;;;;;;;0.20;0.20;;;;;;;12.33;85.02;98287.22;5074650;28;20097;-62
2023/03/14 10:12:56;;;;;;;0.47;0.15;;;;;;;12.33;88.56;98290.72;5074313;28;20028;-63
2023/03/14 10:15:32;;;;;;;0.08;0.08;;;;;;;12.33;87.84;98297.91;5066373;28;20085;-63
2023/03/14 10:18:00;;;;;;;0.28;0.10;;;;;;;12.27;85.37;98288.16;5074387;28;20044;-62
2023/03/14 10:20:33;;;;;;;0.15;0.10;;;;;;;12.34;86.70;98291.50;5074262;28;20097;-59
2023/03/14 10:23:03;;;;;;;0.10;0.10;;;;;;;12.25;88.14;98291.03;5073980;28;20119;-58
2023/03/14 10:25:31;;;;;;;0.52;0.30;;;;;;;12.10;89.49;98320.84;5074142;28;20032;-58
2023/03/14 10:27:57;;;;;;;;;;;;;;;11.86;91.97;98321.81;5074692;28;20021;-55
2023/03/14 10:30:43;;;;;;;0.03;0.03;;;;;;;11.82;92.83;98318.00;5072645;28;20006;-61
2023/03/14 10:33:30;;;;;;;0.07;0.07;;;;;;;11.81;94.98;98329.72;5073961;28;20090;-58
2023/03/14 10:36:03;;;;;;;0.17;0.17;;;;;;;11.82;95.05;98323.34;5074078;28;20031;-62
2023/03/14 10:38:35;;;;;;;0.20;0.20;;;;;;;11.74;94.17;98328.97;5073997;28;20295;-60
2023/03/14 10:41:01;;;;;;;0.10;0.10;;;;;;;11.75;96.94;98326.06;5074001;28;20043;-58
2023/03/14 10:43:34;;;;;;;0.30;0.10;;;;;;;11.48;99.09;98344.28;5073658;28;20055;-58
2023/03/14 10:46:12;;;;;;;0.43;0.20;;;;;;;11.44;100.00;98343.09;5073773;28;20482;-62
2023/03/14 10:48:57;;;;;;;0.10;0.10;;;;;;;11.25;100.00;98331.63;5073813;28;20041;-55
2023/03/14 10:51:28;;;;;;;0.20;0.20;;;;;;;10.98;100.00;98336.47;5073785;28;20403;-58
2023/03/14 10:54:20;;;;;;;0.10;0.00;;;;;;;10.93;100.00;98346.97;5073497;28;20047;-64
2023/03/14 10:56:57;;;;;;;0.50;0.20;;;;;;;10.76;100.00;98353.94;5072392;28;20064;-62
2023/03/14 10:59:22;;;;;;;0.03;0.03;;;;;;;10.76;100.00;98343.28;5073652;28;20032;-60
2023/03/14 11:01:58;;;;;;;0.55;0.30;;;;;;;10.75;100.00;98357.59;5073476;28;20116;-59
2023/03/14 11:04:54;;;;;;;0.47;0.20;;;;;;;10.77;100.00;98364.34;5073294;28;20036;-59
2023/03/14 11:07:41;;;;;;;0.20;0.20;;;;;;;10.75;100.00;98373.56;5072191;28;20036;-59
2023/03/14 11:10:47;;;;;;;0.10;0.10;;;;;;;10.60;100.00;98380.06;5073520;28;20055;-58
2023/03/14 11:13:20;;;;;;;0.88;0.28;;;;;;;10.54;100.00;98372.13;5014155;28;20041;-59
2023/03/14 11:15:51;;;;;;;0.68;0.28;;;;;;;10.38;100.00;98400.13;5014409;28;20124;-58
2023/03/14 11:18:29;;;;;;;1.15;0.30;;;;;;;10.25;100.00;98389.56;5055001;28;20040;-61
2023/03/14 11:21:02;;;;;;;0.30;0.30;;;;;;;10.11;100.00;98406.63;5073063;28;20074;-58
2023/03/14 11:23:52;;;;;;;0.47;0.35;;;;;;;10.01;100.00;98421.19;5072858;28;20047;-58
2023/03/14 11:26:40;;;;;;;0.35;0.25;;;;;;;9.99;100.00;98423.28;5073109;28;20051;-57
2023/03/14 11:29:40;;;;;;;0.90;0.40;;;;;;;10.15;100.00;98437.91;5073151;28;20456;-58
2023/03/14 11:32:24;;;;;;;0.20;0.10;;;;;;;10.09;100.00;98448.56;5050220;28;20123;-61
2023/03/14 11:34:54;;;;;;;1.65;0.30;;;;;;;10.22;100.00;98472.44;5073026;28;20040;-58
2023/03/14 11:37:32;;;;;;;0.63;0.40;;;;;;;10.09;100.00;98491.97;5072827;28;20127;-65
2023/03/14 11:40:13;;;;;;;0.22;0.22;;;;;;;10.12;100.00;98510.19;5072983;28;20036;-61
2023/03/14 11:42:42;;;;;;;0.52;0.32;;;;;;;10.11;99.60;98518.38;5072445;28;20038;-59
2023/03/14 11:45:18;;;;;;;0.50;0.32;;;;;;;10.06;97.61;98535.78;5072750;28;20742;-59
2023/03/14 11:47:45;;;;;;;0.50;0.50;;;;;;;9.89;97.85;98528.47;5072740;28;20040;-63
2023/03/14 11:50:24;;;;;;;0.47;0.30;;;;;;;9.94;97.49;98550.75;5072678;28;20036;-57
2023/03/14 11:53:03;;;;;;;0.30;0.30;;;;;;;9.76;97.85;98561.25;5071066;28;20512;-57
2023/03/14 11:55:33;;;;;;;1.45;0.57;;;;;;;9.81;94.78;98576.56;5072438;28;20122;-59
2023/03/14 11:58:08;;;;;;;0.57;0.57;;;;;;;9.62;92.80;98570.28;5072501;28;20059;-58
2023/03/14 12:00:34;;;;;;;0.57;0.40;;;;;;;9.55;92.06;98596.88;5072294;28;20073;-61
2023/03/14 12:03:42;;;;;;;1.05;0.73;;;;;;;9.37;89.91;98600.16;5072169;28;20119;-58
2023/03/14 12:06:21;;;;;;;0.60;0.60;;;;;;;9.44;92.01;98632.03;5029766;28;20102;-63
2023/03/14 12:08:52;;;;;;;0.65;0.52;;;;;;;9.52;94.05;98639.81;5069301;28;20048;-59
2023/03/14 12:11:35;;;;;;;1.35;0.68;;;;;;;9.55;91.06;98646.56;5072228;28;20040;-57
2023/03/14 12:14:01;;;;;;;0.50;0.50;;;;;;;9.61;88.59;98659.84;5070438;28;20101;-60
2023/03/14 12:16:33;;;;;;;2.17;0.88;;;;;;;9.64;87.43;98659.44;5072076;28;20044;-58
2023/03/14 12:19:14;;;;;;;0.60;0.60;;;;;;;9.73;85.07;98658.22;5072125;28;20074;-61
2023/03/14 12:21:54;;;;;;;1.67;0.60;;;;;;;9.83;83.03;98664.94;5071817;28;20090;-60
2023/03/14 12:24:26;;;;;;;0.82;0.68;;;;;;;10.04;82.29;98678.84;5071758;28;20032;-57
2023/03/14 12:26:57;;;;;;;1.40;0.93;;;;;;;10.17;77.56;98669.16;5071897;28;20032;-57
2023/03/14 12:29:23;;;;;;;0.70;0.50;;;;;;;10.37;73.95;98675.31;5071856;28;20116;-61
2023/03/14 12:32:07;;;;;;;1.30;0.40;;;;;;;10.97;72.03;98686.50;5071276;28;20039;-59
2023/03/14 12:34:41;;;;;;;1.13;0.50;;;;;;;11.69;60.63;98690.53;5071671;28;20116;-62
2023/03/14 12:37:09;;;;;;;1.05;0.60;;;;;;;12.32;60.48;98684.19;5071705;28;20036;-58
2023/03/14 12:39:56;;;;;;;0.45;0.22;;;;;;;12.77;56.30;98699.91;5071675;28;20056;-64
2023/03/14 12:42:37;;;;;;;0.98;0.28;;;;;;;13.38;52.97;98706.94;5071369;28;20033;-59
2023/03/14 12:45:31;;;;;;;2.17;0.73;;;;;;;14.40;51.04;98720.03;5068650;28;20033;-60
2023/03/14 12:48:24;;;;;;;1.02;0.35;;;;;;;15.27;48.54;98735.22;5069132;28;20043;-62
2023/03/14 12:51:03;;;;;;;0.20;0.15;;;;;;;15.12;45.99;98730.38;5069926;28;20048;-58
2023/03/14 12:53:45;;;;;;;1.17;0.30;;;;;;;14.68;45.43;98734.59;5071685;28;20127;-65
2023/03/14 12:56:42;;;;;;;0.17;0.17;;;;;;;13.98;46.54;98749.63;5072802;28;20032;-64
2023/03/14 12:59:31;;;;;;;0.47;0.20;;;;;;;14.20;47.08;98749.84;5072992;28;20044;-65
2023/03/14 13:02:05;;;;;;;0.30;0.30;;;;;;;14.62;43.84;98763.16;5054418;28;20048;-65
2023/03/14 13:05:01;;;;;;;0.52;0.25;;;;;;;15.35;43.20;98762.47;5065293;28;20338;-64
2023/03/14 13:07:59;;;;;;;0.35;0.20;;;;;;;15.51;41.80;98768.91;5072407;28;20028;-65
2023/03/14 13:10:30;;;;;;;0.38;0.25;;;;;;;15.43;42.15;98769.31;5071436;28;20040;-65
2023/03/14 13:13:20;;;;;;;2.33;0.50;;;;;;;15.19;40.65;98785.53;5072406;28;20093;-63
2023/03/14 13:15:47;;;;;;;0.55;0.20;;;;;;;15.48;42.04;98793.56;5072272;28;20404;-65
2023/03/14 13:18:41;;;;;;;1.75;0.17;;;;;;;14.56;40.97;98804.28;5072429;28;20062;-64
2023/03/14 13:21:17;;;;;;;0.20;0.20;;;;;;;14.42;40.43;98810.91;5069887;28;20494;-66
2023/03/14 13:24:02;;;;;;;0.22;0.17;;;;;;;13.76;42.75;98807.41;5071167;28;20033;-63
2023/03/14 13:26:37;;;;;;;0.65;0.20;;;;;;;13.05;42.37;98800.91;5072182;28;20431;-65
2023/03/14 13:29:32;;;;;;;0.32;0.17;;;;;;;12.42;44.19;98833.22;5072231;28;20123;-65
2023/03/14 13:32:20;;;;;;;0.30;0.20;;;;;;;11.75;43.80;98832.06;5071238;28;20079;-64
2023/03/14 13:34:47;;;;;;;;;;;;;;;11.52;44.63;98852.06;5071002;28;20032;-65
2023/03/14 13:37:21;;;;;;;0.45;0.25;;;;;;;11.34;45.86;98857.28;5072263;28;19912;-65
2023/03/14 13:39:51;;;;;;;0.10;0.10;;;;;;;11.23;46.11;98860.63;5070346;28;20075;-64
2023/03/14 13:42:17;;;;;;;0.43;0.20;;;;;;;11.02;46.95;98885.69;5071637;28;20044;-65
2023/03/14 13:44:43;;;;;;;1.75;0.30;;;;;;;11.11;47.30;98892.44;5075503;28;20112;-65
2023/03/14 13:47:15;;;;;;;0.63;0.40;;;;;;;10.97;47.84;98894.31;5073933;28;20048;-65
2023/03/14 13:49:41;;;;;;;0.20;0.20;;;;;;;10.91;47.56;98899.66;5075125;28;20044;-63
2023/03/14 13:52:38;;;;;;;0.95;0.25;;;;;;;10.63;46.40;98918.53;5075140;28;20469;-64
2023/03/14 13:55:05;;;;;;;2.10;0.32;;;;;;;10.84;47.34;98913.00;5075557;28;20386;-65
2023/03/14 13:57:55;;;;;;;0.20;0.20;;;;;;;10.95;46.27;98925.66;5075377;28;20443;-65
2023/03/14 14:00:26;;;;;;;0.32;0.32;;;;;;;10.96;46.33;98945.97;5075293;28;20558;-65
2023/03/14 14:02:54;;;;;;;0.82;0.60;;;;;;;11.01;46.63;98930.16;5075146;28;20041;-65
2023/03/14 14:05:20;;;;;;;0.55;0.32;;;;;;;10.89;46.65;98942.50;5074031;28;20547;-65
2023/03/14 14:07:46;;;;;;;0.20;0.20;;;;;;;10.91;46.82;98959.09;5075932;28;20033;-66
2023/03/14 14:10:13;;;;;;;1.92;0.68;;;;;;;10.91;45.14;98972.41;5077167;28;20493;-66
2023/03/14 14:12:51;;;;;;;2.47;0.47;;;;;;;10.86;45.61;98959.69;5075158;28;20021;-65
2023/03/14 14:15:21;;;;;;;0.45;0.28;;;;;;;11.02;45.94;98968.28;5074979;28;20033;-66
2023/03/14 14:17:54;;;;;;;0.28;0.28;;;;;;;10.83;47.09;98972.63;5075481;28;20060;-65
2023/03/14 14:20:33;;;;;;;0.40;0.32;;;;;;;11.00;46.73;98981.00;5076104;28;20035;-65
2023/03/14 14:23:02;;;;;;;0.52;0.40;;;;;;;11.14;46.37;98991.44;5074524;28;20123;-65
2023/03/14 14:25:29;;;;;;;0.30;0.30;;;;;;;11.27;46.60;98990.59;5074834;28;20110;-65
2023/03/14 14:27:55;;;;;;;2.43;0.60;;;;;;;11.52;45.27;98990.75;5058183;28;20463;-66
2023/03/14 14:30:20;;;;;;;2.70;0.28;;;;;;;11.78;45.91;98991.69;5054362;28;20136;-67
2023/03/14 14:32:48;;;;;;;0.95;0.30;;;;;;;11.81;44.26;98992.13;5053797;28;20398;-65
2023/03/14 14:35:24;;;;;;;0.45;0.22;;;;;;;12.04;44.16;99007.63;5054036;28;20087;-67
2023/03/14 14:37:50;;;;;;;0.75;0.43;;;;;;;11.92;43.47;99003.97;5053986;28;20497;-65
2023/03/14 14:40:25;;;;;;;1.30;0.47;;;;;;;12.01;44.16;99008.06;5053936;28;20037;-68
2023/03/14 14:42:51;;;;;;;3.22;0.75;;;;;;;11.88;43.60;99032.13;5053696;28;20036;-66
2023/03/14 14:45:19;;;;;;;0.40;0.40;;;;;;;11.90;43.80;99028.22;5053846;28;20033;-67
2023/03/14 14:47:55;;;;;;;0.50;0.50;;;;;;;11.51;44.28;99021.13;5053926;28;20044;-67
2023/03/14 14:50:26;;;;;;;0.17;0.15;;;;;;;11.43;45.71;99032.00;5053775;28;20040;-67
2023/03/14 14:52:56;;;;;;;0.30;0.30;;;;;;;11.38;45.22;99039.81;5053227;28;20029;-66
2023/03/14 14:55:22;;;;;;;0.30;0.20;;;;;;;11.31;47.24;99033.66;5053665;28;20506;-68
2023/03/14 14:57:53;;;;;;;0.57;0.40;;;;;;;10.98;47.91;99044.34;5052582;28;20041;-67
2023/03/14 15:00:21;;;;;;;1.92;1.00;;;;;;;11.07;48.55;99051.91;5053679;28;20045;-66
2023/03/14 15:02:53;;;;;;;1.40;0.40;;;;;;;11.07;47.79;99057.25;5053177;28;20478;-67
2023/03/14 15:05:24;;;;;;;1.27;0.70;;;;;;;11.01;48.23;99063.41;5052301;28;20064;-67
2023/03/14 15:07:49;;;;;;;0.88;0.70;;;;;;;10.95;47.85;99058.88;5053485;28;20084;-67
2023/03/14 15:10:20;;;;;;;2.28;0.50;;;;;;;10.80;49.37;99059.06;5053402;28;20060;-67
2023/03/14 15:12:47;;;;;;;0.73;0.60;;;;;;;10.71;49.22;99054.16;5053109;28;20033;-65
2023/03/14 15:15:13;;;;;;;1.08;0.50;;;;;;;10.75;49.15;99055.38;5053298;28;20116;-66
2023/03/14 15:17:39;;;;;;;0.70;0.30;;;;;;;10.53;49.88;99049.41;5053286;28;20048;-66
2023/03/14 15:20:06;;;;;;;1.17;0.65;;;;;;;10.57;50.66;99064.78;5053092;28;20033;-66
2023/03/14 15:22:32;;;;;;;1.00;0.22;;;;;;;10.59;51.94;99054.75;5052905;28;20037;-67
2023/03/14 15:24:58;;;;;;;1.05;0.63;;;;;;;10.55;51.86;99064.16;5053608;28;20043;-66
2023/03/14 15:27:24;;;;;;;0.88;0.50;;;;;;;10.47;50.67;99059.03;5060034;28;20136;-66
2023/03/14 15:29:50;;;;;;;1.65;1.08;;;;;;;10.65;49.95;99053.13;5041846;28;20072;-66
2023/03/14 15:32:17;;;;;;;2.17;0.65;;;;;;;10.54;51.06;99067.84;5054702;28;20033;-66
2023/03/14 15:34:43;;;;;;;3.30;0.85;;;;;;;10.65;50.74;99076.28;5054038;28;20037;-65
2023/03/14 15:37:15;;;;;;;0.98;0.43;;;;;;;10.63;51.03;99080.97;5057533;28;20048;-66
2023/03/14 15:39:42;;;;;;;1.65;0.40;;;;;;;10.62;51.46;99087.31;5053621;28;20071;-64
2023/03/14 15:42:07;;;;;;;0.93;0.40;;;;;;;10.68;50.10;99086.50;5052787;28;20478;-66
2023/03/14 15:44:33;;;;;;;1.98;0.60;;;;;;;10.41;51.88;99090.94;5053077;28;20126;-65
2023/03/14 15:46:59;;;;;;;0.82;0.35;;;;;;;10.36;51.73;99094.19;5053260;28;20047;-64
2023/03/14 15:49:24;;;;;;;1.65;0.52;;;;;;;10.39;52.01;99104.47;5055158;28;20055;-67
2023/03/14 15:51:49;;;;;;;0.90;0.55;;;;;;;10.32;51.54;99096.47;5056793;28;20029;-65
2023/03/14 15:54:15;;;;;;;0.77;0.40;;;;;;;10.22;52.94;99108.44;5048361;28;20049;-65
2023/03/14 15:56:40;;;;;;;3.83;0.63;;;;;;;10.13;53.63;99117.63;5066609;28;20044;-66
2023/03/14 15:59:06;;;;;;;0.30;0.30;;;;;;;10.15;53.86;99121.72;5062627;28;20097;-66
2023/03/14 16:01:31;;;;;;;0.40;0.30;;;;;;;9.97;55.28;99126.75;5061671;28;20091;-65
2023/03/14 16:03:57;;;;;;;0.57;0.57;;;;;;;9.88;57.51;99138.56;5038849;28;20036;-65
2023/03/14 16:06:39;;;;;;;0.93;0.52;;;;;;;9.81;59.00;99138.53;5064257;28;20037;-66
2023/03/14 16:09:05;;;;;;;2.15;0.95;;;;;;;9.75;59.29;99155.25;5063865;28;20037;-66
2023/03/14 16:11:30;;;;;;;0.50;0.50;;;;;;;9.59;62.28;99159.06;5056694;28;20094;-65
2023/03/14 16:13:55;;;;;;;3.50;0.63;;;;;;;9.38;62.33;99153.75;5057874;28;20502;-65
2023/03/14 16:16:21;;;;;;;2.15;0.50;;;;;;;9.24;61.32;99166.09;5051002;28;20112;-66
2023/03/14 16:18:46;;;;;;;3.13;0.70;;;;;;;8.98;63.23;99186.09;5054690;28;20478;-66
2023/03/14 16:21:15;;;;;;;0.32;0.32;;;;;;;8.86;64.81;99171.66;5052064;28;20047;-66
2023/03/14 16:23:41;;;;;;;0.40;0.40;;;;;;;8.64;67.55;99178.78;5051742;28;20482;-66
2023/03/14 16:26:09;;;;;;;0.70;0.40;;;;;;;8.50;69.43;99176.16;5053802;28;20106;-66
2023/03/14 16:28:35;;;;;;;3.10;0.43;;;;;;;8.39;69.53;99185.41;5056361;28;20040;-64
2023/03/14 16:31:05;;;;;;;2.08;0.47;;;;;;;8.50;68.02;99187.59;5053572;28;20116;-66
2023/03/14 16:33:32;;;;;;;3.30;0.63;;;;;;;8.53;68.37;99191.69;5052818;28;20041;-66
2023/03/14 16:36:00;;;;;;;0.55;0.55;;;;;;;8.45;68.11;99181.19;5052959;28;20043;-66
2023/03/14 16:38:26;;;;;;;0.65;0.50;;;;;;;8.37;69.22;99206.00;5054899;28;20040;-65
2023/03/14 16:41:15;;;;;;;0.45;0.30;;;;;;;8.28;71.13;99210.56;5051722;28;20474;-66
2023/03/14 16:43:42;;;;;;;0.80;0.40;;;;;;;8.21;77.44;99201.66;5050088;28;20513;-66
2023/03/14 16:46:12;;;;;;;0.82;0.55;;;;;;;8.04;80.94;99211.63;5051524;28;20079;-65
2023/03/14 16:48:38;;;;;;;1.77;0.70;;;;;;;7.72;85.37;99207.47;5051620;28;20041;-66
2023/03/14 16:51:03;;;;;;;0.77;0.70;;;;;;;7.57;84.35;99219.88;5051469;28;20568;-66
2023/03/14 16:53:29;;;;;;;0.50;0.25;;;;;;;7.48;84.34;99211.16;5051330;28;20037;-66
2023/03/14 16:55:55;;;;;;;0.60;0.35;;;;;;;7.48;84.54;99219.09;5050846;28;20036;-65
2023/03/14 16:58:21;;;;;;;0.70;0.30;;;;;;;7.37;85.76;99226.63;5051853;28;20039;-65
2023/03/14 17:00:47;;;;;;;1.20;0.40;;;;;;;7.41;84.45;99227.94;5051451;28;20393;-66
2023/03/14 17:03:14;;;;;;;0.50;0.47;;;;;;;7.44;85.47;99241.69;5051093;28;20044;-65
2023/03/14 17:05:47;;;;;;;0.43;0.43;;;;;;;7.40;86.09;99235.06;5051225;28;20079;-65
2023/03/14 17:08:15;;;;;;;1.00;0.45;;;;;;;7.34;86.67;99251.66;5051412;28;20406;-65
2023/03/14 17:10:40;;;;;;;0.82;0.57;;;;;;;7.38;85.59;99249.50;5050104;28;20029;-67
2023/03/14 17:13:06;;;;;;;1.90;0.45;;;;;;;7.33;85.57;99256.16;5050872;28;20083;-66
2023/03/14 17:15:31;;;;;;;5.28;0.60;;;;;;;7.27;85.20;99251.56;5051425;28;20056;-59
2023/03/14 17:17:56;;;;;;;0.38;0.38;;;;;;;7.27;84.80;99259.50;5050972;28;20048;-65